sensor_id;sensor_type;location;lat;lon;timestamp;P1;durP1;ratioP1;P2;durP2;ratioP2
66619;SDS011;53484;51.356;6.732;2023-04-05T00:00:33;10.57;;;5.00;;
66619;SDS011;53484;51.356;6.732;2023-04-05T00:02:59;13.63;;;5.15;;
66619;SDS011;53484;51.356;6.732;2023-04-05T00:05:26;13.70;;;5.27;;
66619;SDS011;53484;51.356;6.732;2023-04-05T00:07:55;9.73;;;4.18;;
66619;SDS011;53484;51.356;6.732;2023-04-05T00:10:22;10.60;;;4.38;;
66619;SDS011;53484;51.356;6.732;2023-04-05T00:12:48;11.30;;;4.88;;
66619;SDS011;53484;51.356;6.732;2023-04-05T00:15:15;9.80;;;5.00;;
66619;SDS011;53484;51.356;6.732;2023-04-05T00:17:42;10.60;;;4.63;;
66619;SDS011;53484;51.356;6.732;2023-04-05T00:20:09;12.98;;;5.22;;
66619;SDS011;53484;51.356;6.732;2023-04-05T00:22:35;11.85;;;5.25;;
66619;SDS011;53484;51.356;6.732;2023-04-05T00:25:04;12.65;;;5.30;;
66619;SDS011;53484;51.356;6.732;2023-04-05T00:27:30;10.05;;;4.75;;
66619;SDS011;53484;51.356;6.732;2023-04-05T00:29:56;9.90;;;4.47;;
66619;SDS011;53484;51.356;6.732;2023-04-05T00:32:23;10.48;;;4.60;;
66619;SDS011;53484;51.356;6.732;2023-04-05T00:34:49;10.45;;;4.78;;
66619;SDS011;53484;51.356;6.732;2023-04-05T00:37:16;11.50;;;5.03;;
66619;SDS011;53484;51.356;6.732;2023-04-05T00:39:42;11.38;;;5.00;;
66619;SDS011;53484;51.356;6.732;2023-04-05T00:42:09;14.17;;;5.20;;
66619;SDS011;53484;51.356;6.732;2023-04-05T00:44:36;10.93;;;4.90;;
66619;SDS011;53484;51.356;6.732;2023-04-05T00:47:02;12.80;;;5.63;;
66619;SDS011;53484;51.356;6.732;2023-04-05T00:49:29;14.27;;;5.38;;
66619;SDS011;53484;51.356;6.732;2023-04-05T00:51:57;10.13;;;5.32;;
66619;SDS011;53484;51.356;6.732;2023-04-05T00:54:23;14.83;;;5.50;;
66619;SDS011;53484;51.356;6.732;2023-04-05T00:56:50;13.15;;;5.35;;
66619;SDS011;53484;51.356;6.732;2023-04-05T00:59:18;12.70;;;5.05;;
66619;SDS011;53484;51.356;6.732;2023-04-05T01:01:45;12.35;;;5.75;;
66619;SDS011;53484;51.356;6.732;2023-04-05T01:04:19;11.00;;;5.20;;
66619;SDS011;53484;51.356;6.732;2023-04-05T01:06:51;14.40;;;6.10;;
66619;SDS011;53484;51.356;6.732;2023-04-05T01:09:26;13.20;;;6.13;;
66619;SDS011;53484;51.356;6.732;2023-04-05T01:11:55;14.98;;;5.40;;
66619;SDS011;53484;51.356;6.732;2023-04-05T01:14:23;11.10;;;5.30;;
66619;SDS011;53484;51.356;6.732;2023-04-05T01:16:49;10.70;;;5.18;;
66619;SDS011;53484;51.356;6.732;2023-04-05T01:19:22;10.80;;;5.20;;
66619;SDS011;53484;51.356;6.732;2023-04-05T01:22:10;12.75;;;5.40;;
66619;SDS011;53484;51.356;6.732;2023-04-05T01:24:43;11.02;;;5.30;;
66619;SDS011;53484;51.356;6.732;2023-04-05T01:27:15;10.75;;;5.25;;
66619;SDS011;53484;51.356;6.732;2023-04-05T01:29:53;15.10;;;6.38;;
66619;SDS011;53484;51.356;6.732;2023-04-05T01:32:25;11.10;;;5.70;;
66619;SDS011;53484;51.356;6.732;2023-04-05T01:34:56;13.05;;;6.38;;
66619;SDS011;53484;51.356;6.732;2023-04-05T01:37:28;14.88;;;6.53;;
66619;SDS011;53484;51.356;6.732;2023-04-05T01:39:55;10.35;;;5.25;;
66619;SDS011;53484;51.356;6.732;2023-04-05T01:42:23;11.30;;;5.20;;
66619;SDS011;53484;51.356;6.732;2023-04-05T01:44:50;11.63;;;5.17;;
66619;SDS011;53484;51.356;6.732;2023-04-05T01:47:17;10.73;;;5.07;;
66619;SDS011;53484;51.356;6.732;2023-04-05T01:49:44;14.27;;;6.43;;
66619;SDS011;53484;51.356;6.732;2023-04-05T01:52:10;14.20;;;6.00;;
66619;SDS011;53484;51.356;6.732;2023-04-05T01:54:36;11.55;;;5.65;;
66619;SDS011;53484;51.356;6.732;2023-04-05T01:57:03;16.63;;;6.17;;
66619;SDS011;53484;51.356;6.732;2023-04-05T01:59:29;15.75;;;5.88;;
66619;SDS011;53484;51.356;6.732;2023-04-05T02:01:56;10.50;;;5.47;;
66619;SDS011;53484;51.356;6.732;2023-04-05T02:04:23;12.57;;;5.93;;
66619;SDS011;53484;51.356;6.732;2023-04-05T02:06:50;10.68;;;5.45;;
66619;SDS011;53484;51.356;6.732;2023-04-05T02:09:16;13.27;;;6.43;;
66619;SDS011;53484;51.356;6.732;2023-04-05T02:11:42;13.60;;;6.03;;
66619;SDS011;53484;51.356;6.732;2023-04-05T02:14:09;12.25;;;5.32;;
66619;SDS011;53484;51.356;6.732;2023-04-05T02:16:36;11.18;;;5.25;;
66619;SDS011;53484;51.356;6.732;2023-04-05T02:19:02;11.95;;;5.75;;
66619;SDS011;53484;51.356;6.732;2023-04-05T02:21:31;11.20;;;4.90;;
66619;SDS011;53484;51.356;6.732;2023-04-05T02:23:57;13.52;;;5.70;;
66619;SDS011;53484;51.356;6.732;2023-04-05T02:26:23;9.85;;;5.32;;
66619;SDS011;53484;51.356;6.732;2023-04-05T02:28:51;12.82;;;5.70;;
66619;SDS011;53484;51.356;6.732;2023-04-05T02:31:17;12.88;;;6.00;;
66619;SDS011;53484;51.356;6.732;2023-04-05T02:33:43;10.70;;;5.47;;
66619;SDS011;53484;51.356;6.732;2023-04-05T02:36:11;11.95;;;5.70;;
66619;SDS011;53484;51.356;6.732;2023-04-05T02:38:39;12.73;;;5.38;;
66619;SDS011;53484;51.356;6.732;2023-04-05T02:41:07;14.48;;;5.75;;
66619;SDS011;53484;51.356;6.732;2023-04-05T02:43:33;13.13;;;5.90;;
66619;SDS011;53484;51.356;6.732;2023-04-05T02:45:59;10.90;;;5.83;;
66619;SDS011;53484;51.356;6.732;2023-04-05T02:48:25;14.38;;;6.22;;
66619;SDS011;53484;51.356;6.732;2023-04-05T02:50:52;14.45;;;6.00;;
66619;SDS011;53484;51.356;6.732;2023-04-05T02:53:19;10.93;;;5.95;;
66619;SDS011;53484;51.356;6.732;2023-04-05T02:55:51;12.23;;;5.68;;
66619;SDS011;53484;51.356;6.732;2023-04-05T02:58:18;14.27;;;6.57;;
66619;SDS011;53484;51.356;6.732;2023-04-05T03:00:44;14.00;;;5.90;;
66619;SDS011;53484;51.356;6.732;2023-04-05T03:03:15;13.80;;;5.53;;
66619;SDS011;53484;51.356;6.732;2023-04-05T03:05:41;11.18;;;5.45;;
66619;SDS011;53484;51.356;6.732;2023-04-05T03:08:07;14.18;;;5.60;;
66619;SDS011;53484;51.356;6.732;2023-04-05T03:10:43;11.07;;;5.10;;
66619;SDS011;53484;51.356;6.732;2023-04-05T03:13:10;14.18;;;6.03;;
66619;SDS011;53484;51.356;6.732;2023-04-05T03:15:37;10.52;;;5.30;;
66619;SDS011;53484;51.356;6.732;2023-04-05T03:18:03;11.88;;;5.60;;
66619;SDS011;53484;51.356;6.732;2023-04-05T03:20:30;15.73;;;5.97;;
66619;SDS011;53484;51.356;6.732;2023-04-05T03:22:56;12.93;;;6.30;;
66619;SDS011;53484;51.356;6.732;2023-04-05T03:25:22;12.68;;;5.80;;
66619;SDS011;53484;51.356;6.732;2023-04-05T03:27:49;14.38;;;5.97;;
66619;SDS011;53484;51.356;6.732;2023-04-05T03:30:18;13.70;;;6.13;;
66619;SDS011;53484;51.356;6.732;2023-04-05T03:32:45;12.05;;;5.50;;
66619;SDS011;53484;51.356;6.732;2023-04-05T03:35:11;10.63;;;5.30;;
66619;SDS011;53484;51.356;6.732;2023-04-05T03:37:40;14.73;;;6.30;;
66619;SDS011;53484;51.356;6.732;2023-04-05T03:40:07;13.10;;;6.15;;
66619;SDS011;53484;51.356;6.732;2023-04-05T03:42:34;12.10;;;6.07;;
66619;SDS011;53484;51.356;6.732;2023-04-05T03:45:00;15.85;;;6.13;;
66619;SDS011;53484;51.356;6.732;2023-04-05T03:47:28;13.20;;;6.20;;
66619;SDS011;53484;51.356;6.732;2023-04-05T03:49:54;12.18;;;5.95;;
66619;SDS011;53484;51.356;6.732;2023-04-05T03:52:21;13.93;;;5.82;;
66619;SDS011;53484;51.356;6.732;2023-04-05T03:54:47;17.52;;;6.15;;
66619;SDS011;53484;51.356;6.732;2023-04-05T03:57:13;11.80;;;6.07;;
66619;SDS011;53484;51.356;6.732;2023-04-05T03:59:39;11.53;;;5.83;;
66619;SDS011;53484;51.356;6.732;2023-04-05T04:02:06;9.40;;;5.13;;
66619;SDS011;53484;51.356;6.732;2023-04-05T04:04:33;13.98;;;5.93;;
66619;SDS011;53484;51.356;6.732;2023-04-05T04:07:00;16.40;;;5.95;;
66619;SDS011;53484;51.356;6.732;2023-04-05T04:09:26;15.98;;;6.50;;
66619;SDS011;53484;51.356;6.732;2023-04-05T04:11:53;11.63;;;5.77;;
66619;SDS011;53484;51.356;6.732;2023-04-05T04:14:20;12.32;;;5.53;;
66619;SDS011;53484;51.356;6.732;2023-04-05T04:16:47;11.88;;;6.13;;
66619;SDS011;53484;51.356;6.732;2023-04-05T04:19:13;15.88;;;6.05;;
66619;SDS011;53484;51.356;6.732;2023-04-05T04:21:41;14.23;;;6.40;;
66619;SDS011;53484;51.356;6.732;2023-04-05T04:24:15;14.43;;;6.33;;
66619;SDS011;53484;51.356;6.732;2023-04-05T04:26:42;14.63;;;5.57;;
66619;SDS011;53484;51.356;6.732;2023-04-05T04:29:09;13.88;;;6.30;;
66619;SDS011;53484;51.356;6.732;2023-04-05T04:31:36;14.75;;;6.13;;
66619;SDS011;53484;51.356;6.732;2023-04-05T04:34:03;14.32;;;6.40;;
66619;SDS011;53484;51.356;6.732;2023-04-05T04:36:29;14.33;;;6.13;;
66619;SDS011;53484;51.356;6.732;2023-04-05T04:39:02;14.13;;;6.47;;
66619;SDS011;53484;51.356;6.732;2023-04-05T04:41:31;16.50;;;6.30;;
66619;SDS011;53484;51.356;6.732;2023-04-05T04:43:58;13.13;;;6.28;;
66619;SDS011;53484;51.356;6.732;2023-04-05T04:46:26;12.68;;;5.80;;
66619;SDS011;53484;51.356;6.732;2023-04-05T04:48:54;15.67;;;5.90;;
66619;SDS011;53484;51.356;6.732;2023-04-05T04:51:21;12.07;;;5.85;;
66619;SDS011;53484;51.356;6.732;2023-04-05T04:53:47;14.18;;;6.63;;
66619;SDS011;53484;51.356;6.732;2023-04-05T04:56:15;17.30;;;8.18;;
66619;SDS011;53484;51.356;6.732;2023-04-05T04:58:41;20.02;;;7.68;;
66619;SDS011;53484;51.356;6.732;2023-04-05T05:01:09;25.10;;;9.57;;
66619;SDS011;53484;51.356;6.732;2023-04-05T05:03:35;23.75;;;8.68;;
66619;SDS011;53484;51.356;6.732;2023-04-05T05:06:02;19.80;;;8.48;;
66619;SDS011;53484;51.356;6.732;2023-04-05T05:08:29;23.35;;;7.50;;
66619;SDS011;53484;51.356;6.732;2023-04-05T05:10:55;16.05;;;8.07;;
66619;SDS011;53484;51.356;6.732;2023-04-05T05:13:25;14.10;;;6.70;;
66619;SDS011;53484;51.356;6.732;2023-04-05T05:15:58;13.52;;;6.95;;
66619;SDS011;53484;51.356;6.732;2023-04-05T05:18:25;22.02;;;7.70;;
66619;SDS011;53484;51.356;6.732;2023-04-05T05:20:52;18.98;;;7.60;;
66619;SDS011;53484;51.356;6.732;2023-04-05T05:23:20;15.10;;;6.65;;
66619;SDS011;53484;51.356;6.732;2023-04-05T05:25:46;13.77;;;6.53;;
66619;SDS011;53484;51.356;6.732;2023-04-05T05:28:12;17.80;;;5.90;;
66619;SDS011;53484;51.356;6.732;2023-04-05T05:30:41;12.35;;;6.97;;
66619;SDS011;53484;51.356;6.732;2023-04-05T05:33:08;15.55;;;6.50;;
66619;SDS011;53484;51.356;6.732;2023-04-05T05:35:35;13.83;;;6.60;;
66619;SDS011;53484;51.356;6.732;2023-04-05T05:38:02;21.77;;;7.30;;
66619;SDS011;53484;51.356;6.732;2023-04-05T05:40:28;15.32;;;6.57;;
66619;SDS011;53484;51.356;6.732;2023-04-05T05:42:54;14.35;;;6.30;;
66619;SDS011;53484;51.356;6.732;2023-04-05T05:45:21;15.43;;;7.97;;
66619;SDS011;53484;51.356;6.732;2023-04-05T05:47:48;17.70;;;7.70;;
66619;SDS011;53484;51.356;6.732;2023-04-05T05:50:15;14.30;;;6.63;;
66619;SDS011;53484;51.356;6.732;2023-04-05T05:52:44;11.48;;;6.53;;
66619;SDS011;53484;51.356;6.732;2023-04-05T05:55:10;17.63;;;7.75;;
66619;SDS011;53484;51.356;6.732;2023-04-05T05:57:37;17.27;;;8.00;;
66619;SDS011;53484;51.356;6.732;2023-04-05T06:00:03;12.90;;;6.93;;
66619;SDS011;53484;51.356;6.732;2023-04-05T06:02:33;16.95;;;7.00;;
66619;SDS011;53484;51.356;6.732;2023-04-05T06:05:01;20.33;;;7.10;;
66619;SDS011;53484;51.356;6.732;2023-04-05T06:07:28;15.13;;;8.10;;
66619;SDS011;53484;51.356;6.732;2023-04-05T06:09:54;15.23;;;7.05;;
66619;SDS011;53484;51.356;6.732;2023-04-05T06:12:20;15.73;;;7.83;;
66619;SDS011;53484;51.356;6.732;2023-04-05T06:14:47;17.10;;;7.85;;
66619;SDS011;53484;51.356;6.732;2023-04-05T06:17:13;19.38;;;7.80;;
66619;SDS011;53484;51.356;6.732;2023-04-05T06:19:39;16.55;;;7.75;;
66619;SDS011;53484;51.356;6.732;2023-04-05T06:22:07;18.20;;;7.40;;
66619;SDS011;53484;51.356;6.732;2023-04-05T06:24:33;18.70;;;7.50;;
66619;SDS011;53484;51.356;6.732;2023-04-05T06:26:59;15.80;;;7.50;;
66619;SDS011;53484;51.356;6.732;2023-04-05T06:29:26;15.05;;;7.72;;
66619;SDS011;53484;51.356;6.732;2023-04-05T06:31:53;17.10;;;6.88;;
66619;SDS011;53484;51.356;6.732;2023-04-05T06:34:20;14.88;;;7.18;;
66619;SDS011;53484;51.356;6.732;2023-04-05T06:36:46;15.07;;;7.17;;
66619;SDS011;53484;51.356;6.732;2023-04-05T06:39:14;13.32;;;6.50;;
66619;SDS011;53484;51.356;6.732;2023-04-05T06:41:40;14.25;;;6.85;;
66619;SDS011;53484;51.356;6.732;2023-04-05T06:44:06;13.70;;;7.05;;
66619;SDS011;53484;51.356;6.732;2023-04-05T06:46:33;18.08;;;7.78;;
66619;SDS011;53484;51.356;6.732;2023-04-05T06:48:59;15.53;;;6.73;;
66619;SDS011;53484;51.356;6.732;2023-04-05T06:51:25;11.68;;;6.60;;
66619;SDS011;53484;51.356;6.732;2023-04-05T06:53:52;13.68;;;6.40;;
66619;SDS011;53484;51.356;6.732;2023-04-05T06:56:20;18.70;;;6.80;;
66619;SDS011;53484;51.356;6.732;2023-04-05T06:58:47;17.38;;;6.95;;
66619;SDS011;53484;51.356;6.732;2023-04-05T07:01:14;13.83;;;6.60;;
66619;SDS011;53484;51.356;6.732;2023-04-05T07:03:41;13.13;;;6.22;;
66619;SDS011;53484;51.356;6.732;2023-04-05T07:06:07;13.40;;;6.03;;
66619;SDS011;53484;51.356;6.732;2023-04-05T07:08:34;11.15;;;5.38;;
66619;SDS011;53484;51.356;6.732;2023-04-05T07:11:00;11.88;;;5.85;;
66619;SDS011;53484;51.356;6.732;2023-04-05T07:13:28;11.80;;;5.00;;
66619;SDS011;53484;51.356;6.732;2023-04-05T07:15:58;10.95;;;5.60;;
66619;SDS011;53484;51.356;6.732;2023-04-05T07:18:25;10.13;;;5.50;;
66619;SDS011;53484;51.356;6.732;2023-04-05T07:20:51;12.18;;;5.20;;
66619;SDS011;53484;51.356;6.732;2023-04-05T07:23:20;9.73;;;4.85;;
66619;SDS011;53484;51.356;6.732;2023-04-05T07:25:46;12.87;;;5.23;;
66619;SDS011;53484;51.356;6.732;2023-04-05T07:28:13;11.07;;;5.30;;
66619;SDS011;53484;51.356;6.732;2023-04-05T07:30:42;12.95;;;6.22;;
66619;SDS011;53484;51.356;6.732;2023-04-05T07:33:08;9.13;;;5.28;;
66619;SDS011;53484;51.356;6.732;2023-04-05T07:35:36;9.85;;;5.18;;
66619;SDS011;53484;51.356;6.732;2023-04-05T07:38:02;9.83;;;4.67;;
66619;SDS011;53484;51.356;6.732;2023-04-05T07:40:28;9.95;;;5.30;;
66619;SDS011;53484;51.356;6.732;2023-04-05T07:42:55;11.73;;;5.32;;
66619;SDS011;53484;51.356;6.732;2023-04-05T07:45:21;11.65;;;5.00;;
66619;SDS011;53484;51.356;6.732;2023-04-05T07:47:49;10.20;;;5.35;;
66619;SDS011;53484;51.356;6.732;2023-04-05T07:50:16;9.60;;;5.57;;
66619;SDS011;53484;51.356;6.732;2023-04-05T07:52:43;10.68;;;5.50;;
66619;SDS011;53484;51.356;6.732;2023-04-05T07:55:09;11.73;;;5.80;;
66619;SDS011;53484;51.356;6.732;2023-04-05T07:57:36;14.02;;;5.55;;
66619;SDS011;53484;51.356;6.732;2023-04-05T08:00:02;9.77;;;5.88;;
66619;SDS011;53484;51.356;6.732;2023-04-05T08:02:31;12.20;;;5.20;;
66619;SDS011;53484;51.356;6.732;2023-04-05T08:04:58;13.63;;;6.00;;
66619;SDS011;53484;51.356;6.732;2023-04-05T08:07:25;11.00;;;6.18;;
66619;SDS011;53484;51.356;6.732;2023-04-05T08:09:51;11.07;;;5.93;;
66619;SDS011;53484;51.356;6.732;2023-04-05T08:12:21;15.18;;;6.47;;
66619;SDS011;53484;51.356;6.732;2023-04-05T08:14:48;14.67;;;5.80;;
66619;SDS011;53484;51.356;6.732;2023-04-05T08:17:15;11.25;;;5.68;;
66619;SDS011;53484;51.356;6.732;2023-04-05T08:19:42;10.40;;;5.93;;
66619;SDS011;53484;51.356;6.732;2023-04-05T08:22:09;11.23;;;5.40;;
66619;SDS011;53484;51.356;6.732;2023-04-05T08:24:36;10.13;;;5.50;;
66619;SDS011;53484;51.356;6.732;2023-04-05T08:27:03;14.40;;;6.00;;
66619;SDS011;53484;51.356;6.732;2023-04-05T08:29:29;10.40;;;5.55;;
66619;SDS011;53484;51.356;6.732;2023-04-05T08:31:55;11.93;;;5.60;;
66619;SDS011;53484;51.356;6.732;2023-04-05T08:34:23;12.05;;;5.68;;
66619;SDS011;53484;51.356;6.732;2023-04-05T08:36:49;13.30;;;5.40;;
66619;SDS011;53484;51.356;6.732;2023-04-05T08:39:17;10.50;;;5.60;;
66619;SDS011;53484;51.356;6.732;2023-04-05T08:41:45;10.35;;;5.57;;
66619;SDS011;53484;51.356;6.732;2023-04-05T08:44:13;10.80;;;5.85;;
66619;SDS011;53484;51.356;6.732;2023-04-05T08:46:40;11.75;;;5.80;;
66619;SDS011;53484;51.356;6.732;2023-04-05T08:49:08;11.18;;;5.00;;
66619;SDS011;53484;51.356;6.732;2023-04-05T08:51:35;11.37;;;6.00;;
66619;SDS011;53484;51.356;6.732;2023-04-05T08:54:03;12.55;;;5.78;;
66619;SDS011;53484;51.356;6.732;2023-04-05T08:56:31;10.90;;;5.97;;
66619;SDS011;53484;51.356;6.732;2023-04-05T08:59:00;12.02;;;5.38;;
66619;SDS011;53484;51.356;6.732;2023-04-05T09:01:28;11.60;;;5.50;;
66619;SDS011;53484;51.356;6.732;2023-04-05T09:03:55;10.07;;;5.00;;
66619;SDS011;53484;51.356;6.732;2023-04-05T09:06:22;12.93;;;5.30;;
66619;SDS011;53484;51.356;6.732;2023-04-05T09:08:51;11.57;;;5.32;;
66619;SDS011;53484;51.356;6.732;2023-04-05T09:11:17;10.45;;;5.55;;
66619;SDS011;53484;51.356;6.732;2023-04-05T09:13:45;9.43;;;5.38;;
66619;SDS011;53484;51.356;6.732;2023-04-05T09:16:11;13.37;;;5.27;;
66619;SDS011;53484;51.356;6.732;2023-04-05T09:18:40;11.32;;;5.18;;
66619;SDS011;53484;51.356;6.732;2023-04-05T09:21:06;11.48;;;5.15;;
66619;SDS011;53484;51.356;6.732;2023-04-05T09:23:33;10.43;;;5.75;;
66619;SDS011;53484;51.356;6.732;2023-04-05T09:25:59;9.48;;;5.13;;
66619;SDS011;53484;51.356;6.732;2023-04-05T09:28:39;12.30;;;5.10;;
66619;SDS011;53484;51.356;6.732;2023-04-05T09:31:07;10.75;;;5.53;;
66619;SDS011;53484;51.356;6.732;2023-04-05T09:33:34;14.23;;;6.00;;
66619;SDS011;53484;51.356;6.732;2023-04-05T09:36:01;10.48;;;5.20;;
66619;SDS011;53484;51.356;6.732;2023-04-05T09:38:40;11.27;;;5.32;;
66619;SDS011;53484;51.356;6.732;2023-04-05T09:41:07;10.03;;;5.00;;
66619;SDS011;53484;51.356;6.732;2023-04-05T09:43:34;8.73;;;5.00;;
66619;SDS011;53484;51.356;6.732;2023-04-05T09:46:01;9.40;;;4.88;;
66619;SDS011;53484;51.356;6.732;2023-04-05T09:48:37;9.35;;;4.97;;
66619;SDS011;53484;51.356;6.732;2023-04-05T09:51:10;13.13;;;5.10;;
66619;SDS011;53484;51.356;6.732;2023-04-05T09:53:36;8.80;;;4.70;;
66619;SDS011;53484;51.356;6.732;2023-04-05T09:56:07;10.40;;;5.22;;
66619;SDS011;53484;51.356;6.732;2023-04-05T09:58:34;9.73;;;4.80;;
66619;SDS011;53484;51.356;6.732;2023-04-05T10:01:00;12.40;;;5.03;;
66619;SDS011;53484;51.356;6.732;2023-04-05T10:03:29;11.38;;;5.07;;
66619;SDS011;53484;51.356;6.732;2023-04-05T10:05:57;9.43;;;4.27;;
66619;SDS011;53484;51.356;6.732;2023-04-05T10:08:23;8.23;;;4.45;;
66619;SDS011;53484;51.356;6.732;2023-04-05T10:10:50;9.73;;;4.95;;
66619;SDS011;53484;51.356;6.732;2023-04-05T10:13:18;9.68;;;4.75;;
66619;SDS011;53484;51.356;6.732;2023-04-05T10:15:46;11.20;;;5.38;;
66619;SDS011;53484;51.356;6.732;2023-04-05T10:18:20;10.30;;;5.00;;
66619;SDS011;53484;51.356;6.732;2023-04-05T10:20:47;8.57;;;4.70;;
66619;SDS011;53484;51.356;6.732;2023-04-05T10:23:16;9.90;;;5.50;;
66619;SDS011;53484;51.356;6.732;2023-04-05T10:25:48;10.40;;;5.68;;
66619;SDS011;53484;51.356;6.732;2023-04-05T10:28:16;10.00;;;5.88;;
66619;SDS011;53484;51.356;6.732;2023-04-05T10:30:45;12.87;;;5.57;;
66619;SDS011;53484;51.356;6.732;2023-04-05T10:33:15;13.80;;;5.65;;
66619;SDS011;53484;51.356;6.732;2023-04-05T10:35:49;15.57;;;5.97;;
66619;SDS011;53484;51.356;6.732;2023-04-05T10:38:22;11.52;;;5.22;;
66619;SDS011;53484;51.356;6.732;2023-04-05T10:40:52;13.48;;;6.53;;
66619;SDS011;53484;51.356;6.732;2023-04-05T10:43:20;10.90;;;5.83;;
66619;SDS011;53484;51.356;6.732;2023-04-05T10:45:48;10.05;;;5.35;;
66619;SDS011;53484;51.356;6.732;2023-04-05T10:48:17;11.07;;;5.95;;
66619;SDS011;53484;51.356;6.732;2023-04-05T10:50:46;11.35;;;5.97;;
66619;SDS011;53484;51.356;6.732;2023-04-05T10:53:13;10.48;;;5.82;;
66619;SDS011;53484;51.356;6.732;2023-04-05T10:55:43;12.23;;;5.63;;
66619;SDS011;53484;51.356;6.732;2023-04-05T10:58:09;10.00;;;6.03;;
66619;SDS011;53484;51.356;6.732;2023-04-05T11:00:36;10.85;;;6.00;;
66619;SDS011;53484;51.356;6.732;2023-04-05T11:03:02;11.80;;;6.22;;
66619;SDS011;53484;51.356;6.732;2023-04-05T11:05:29;11.77;;;6.18;;
66619;SDS011;53484;51.356;6.732;2023-04-05T11:07:58;12.60;;;6.20;;
66619;SDS011;53484;51.356;6.732;2023-04-05T11:10:25;13.77;;;6.13;;
66619;SDS011;53484;51.356;6.732;2023-04-05T11:13:07;12.07;;;6.57;;
66619;SDS011;53484;51.356;6.732;2023-04-05T11:15:34;13.43;;;6.80;;
66619;SDS011;53484;51.356;6.732;2023-04-05T11:18:04;13.50;;;7.57;;
66619;SDS011;53484;51.356;6.732;2023-04-05T11:20:44;15.67;;;8.23;;
66619;SDS011;53484;51.356;6.732;2023-04-05T11:23:12;12.50;;;7.68;;
66619;SDS011;53484;51.356;6.732;2023-04-05T11:25:39;13.40;;;9.07;;
66619;SDS011;53484;51.356;6.732;2023-04-05T11:28:07;16.08;;;9.27;;
66619;SDS011;53484;51.356;6.732;2023-04-05T11:30:46;14.02;;;8.23;;
66619;SDS011;53484;51.356;6.732;2023-04-05T11:35:59;15.35;;;7.80;;
66619;SDS011;53484;51.356;6.732;2023-04-05T11:38:26;11.15;;;7.85;;
66619;SDS011;53484;51.356;6.732;2023-04-05T11:40:57;15.13;;;8.77;;
66619;SDS011;53484;51.356;6.732;2023-04-05T11:43:31;13.95;;;8.65;;
66619;SDS011;53484;51.356;6.732;2023-04-05T11:46:01;12.50;;;7.70;;
66619;SDS011;53484;51.356;6.732;2023-04-05T11:48:27;13.40;;;7.97;;
66619;SDS011;53484;51.356;6.732;2023-04-05T11:50:53;11.27;;;7.93;;
66619;SDS011;53484;51.356;6.732;2023-04-05T11:53:21;12.63;;;8.00;;
66619;SDS011;53484;51.356;6.732;2023-04-05T11:55:48;15.43;;;9.23;;
66619;SDS011;53484;51.356;6.732;2023-04-05T11:58:16;12.67;;;7.90;;
66619;SDS011;53484;51.356;6.732;2023-04-05T12:00:44;11.27;;;7.43;;
66619;SDS011;53484;51.356;6.732;2023-04-05T12:03:11;12.88;;;8.27;;
66619;SDS011;53484;51.356;6.732;2023-04-05T12:05:44;13.88;;;8.65;;
66619;SDS011;53484;51.356;6.732;2023-04-05T12:08:11;14.90;;;8.30;;
66619;SDS011;53484;51.356;6.732;2023-04-05T12:10:37;12.77;;;8.20;;
66619;SDS011;53484;51.356;6.732;2023-04-05T12:13:03;14.38;;;9.18;;
66619;SDS011;53484;51.356;6.732;2023-04-05T12:15:30;13.25;;;8.10;;
66619;SDS011;53484;51.356;6.732;2023-04-05T12:17:58;13.55;;;8.32;;
66619;SDS011;53484;51.356;6.732;2023-04-05T12:20:24;13.85;;;8.40;;
66619;SDS011;53484;51.356;6.732;2023-04-05T12:22:51;11.80;;;7.40;;
66619;SDS011;53484;51.356;6.732;2023-04-05T12:25:17;12.18;;;7.88;;
66619;SDS011;53484;51.356;6.732;2023-04-05T12:27:44;11.32;;;7.97;;
66619;SDS011;53484;51.356;6.732;2023-04-05T12:30:14;12.38;;;7.72;;
66619;SDS011;53484;51.356;6.732;2023-04-05T12:32:45;13.82;;;8.68;;
66619;SDS011;53484;51.356;6.732;2023-04-05T12:35:16;15.30;;;8.93;;
66619;SDS011;53484;51.356;6.732;2023-04-05T12:37:43;13.02;;;8.40;;
66619;SDS011;53484;51.356;6.732;2023-04-05T12:40:09;14.18;;;8.35;;
66619;SDS011;53484;51.356;6.732;2023-04-05T12:42:37;14.00;;;7.90;;
66619;SDS011;53484;51.356;6.732;2023-04-05T12:45:04;16.90;;;8.65;;
66619;SDS011;53484;51.356;6.732;2023-04-05T12:47:34;14.67;;;8.67;;
66619;SDS011;53484;51.356;6.732;2023-04-05T12:50:10;14.32;;;8.25;;
66619;SDS011;53484;51.356;6.732;2023-04-05T12:52:38;12.77;;;8.70;;
66619;SDS011;53484;51.356;6.732;2023-04-05T12:55:13;15.93;;;8.73;;
66619;SDS011;53484;51.356;6.732;2023-04-05T12:57:39;13.63;;;9.32;;
66619;SDS011;53484;51.356;6.732;2023-04-05T13:00:06;13.93;;;9.13;;
66619;SDS011;53484;51.356;6.732;2023-04-05T13:02:35;15.40;;;9.20;;
66619;SDS011;53484;51.356;6.732;2023-04-05T13:05:01;14.20;;;9.57;;
66619;SDS011;53484;51.356;6.732;2023-04-05T13:07:27;16.88;;;8.60;;
66619;SDS011;53484;51.356;6.732;2023-04-05T13:09:55;15.65;;;8.98;;
66619;SDS011;53484;51.356;6.732;2023-04-05T13:12:21;16.23;;;9.00;;
66619;SDS011;53484;51.356;6.732;2023-04-05T13:14:48;17.50;;;9.15;;
66619;SDS011;53484;51.356;6.732;2023-04-05T13:17:14;15.35;;;8.95;;
66619;SDS011;53484;51.356;6.732;2023-04-05T13:19:40;12.63;;;8.02;;
66619;SDS011;53484;51.356;6.732;2023-04-05T13:22:06;15.00;;;9.07;;
66619;SDS011;53484;51.356;6.732;2023-04-05T13:24:33;15.63;;;8.80;;
66619;SDS011;53484;51.356;6.732;2023-04-05T13:27:00;14.05;;;8.60;;
66619;SDS011;53484;51.356;6.732;2023-04-05T13:29:26;14.60;;;8.90;;
66619;SDS011;53484;51.356;6.732;2023-04-05T13:31:53;20.50;;;9.35;;
66619;SDS011;53484;51.356;6.732;2023-04-05T13:34:19;17.50;;;9.20;;
66619;SDS011;53484;51.356;6.732;2023-04-05T13:36:45;14.70;;;9.37;;
66619;SDS011;53484;51.356;6.732;2023-04-05T13:39:13;15.48;;;9.30;;
66619;SDS011;53484;51.356;6.732;2023-04-05T13:41:39;16.10;;;9.02;;
66619;SDS011;53484;51.356;6.732;2023-04-05T13:44:07;14.75;;;8.70;;
66619;SDS011;53484;51.356;6.732;2023-04-05T13:46:33;13.13;;;8.93;;
66619;SDS011;53484;51.356;6.732;2023-04-05T13:48:59;17.87;;;8.80;;
66619;SDS011;53484;51.356;6.732;2023-04-05T13:51:25;15.27;;;8.85;;
66619;SDS011;53484;51.356;6.732;2023-04-05T13:53:55;18.92;;;8.98;;
66619;SDS011;53484;51.356;6.732;2023-04-05T13:56:21;15.77;;;9.05;;
66619;SDS011;53484;51.356;6.732;2023-04-05T13:58:47;15.23;;;9.07;;
66619;SDS011;53484;51.356;6.732;2023-04-05T14:01:15;14.97;;;9.00;;
66619;SDS011;53484;51.356;6.732;2023-04-05T14:03:41;21.13;;;8.93;;
66619;SDS011;53484;51.356;6.732;2023-04-05T14:06:08;15.70;;;9.20;;
66619;SDS011;53484;51.356;6.732;2023-04-05T14:08:34;15.68;;;8.85;;
66619;SDS011;53484;51.356;6.732;2023-04-05T14:11:00;15.40;;;9.43;;
66619;SDS011;53484;51.356;6.732;2023-04-05T14:13:26;14.87;;;9.67;;
66619;SDS011;53484;51.356;6.732;2023-04-05T14:15:53;14.18;;;9.00;;
66619;SDS011;53484;51.356;6.732;2023-04-05T14:18:21;13.90;;;9.23;;
66619;SDS011;53484;51.356;6.732;2023-04-05T14:20:47;14.05;;;9.10;;
66619;SDS011;53484;51.356;6.732;2023-04-05T14:23:13;15.05;;;9.23;;
66619;SDS011;53484;51.356;6.732;2023-04-05T14:25:40;16.60;;;8.60;;
66619;SDS011;53484;51.356;6.732;2023-04-05T14:28:06;15.52;;;9.07;;
66619;SDS011;53484;51.356;6.732;2023-04-05T14:30:32;13.68;;;8.57;;
66619;SDS011;53484;51.356;6.732;2023-04-05T14:32:58;13.13;;;8.88;;
66619;SDS011;53484;51.356;6.732;2023-04-05T14:35:27;15.80;;;9.20;;
66619;SDS011;53484;51.356;6.732;2023-04-05T14:37:53;13.33;;;8.73;;
66619;SDS011;53484;51.356;6.732;2023-04-05T14:40:19;14.57;;;8.60;;